sensor_id;sensor_type;location;lat;lon;timestamp;pressure;altitude;pressure_sealevel;temperature;humidity
72118;BME280;59992;47.490;8.736;2024-02-26T00:01:35;94696.46;;;5.07;84.68
72118;BME280;59992;47.490;8.736;2024-02-26T00:04:26;94697.87;;;5.02;85.71
72118;BME280;59992;47.490;8.736;2024-02-26T00:07:16;94693.88;;;4.96;86.82
72118;BME280;59992;47.490;8.736;2024-02-26T00:10:08;94704.31;;;5.02;86.84
72118;BME280;59992;47.490;8.736;2024-02-26T00:12:58;94708.84;;;5.01;86.50
72118;BME280;59992;47.490;8.736;2024-02-26T00:15:49;94706.35;;;5.04;86.17
72118;BME280;59992;47.490;8.736;2024-02-26T00:18:39;94708.09;;;5.07;86.58
72118;BME280;59992;47.490;8.736;2024-02-26T00:21:29;94707.50;;;5.09;85.91
72118;BME280;59992;47.490;8.736;2024-02-26T00:24:20;94704.80;;;5.08;85.79
72118;BME280;59992;47.490;8.736;2024-02-26T00:27:10;94707.58;;;5.08;85.75
72118;BME280;59992;47.490;8.736;2024-02-26T00:30:00;94706.15;;;5.08;86.61
72118;BME280;59992;47.490;8.736;2024-02-26T00:32:50;94702.10;;;5.08;87.07
72118;BME280;59992;47.490;8.736;2024-02-26T00:35:40;94705.92;;;5.08;86.69
72118;BME280;59992;47.490;8.736;2024-02-26T00:38:31;94705.11;;;5.08;85.70
72118;BME280;59992;47.490;8.736;2024-02-26T00:41:22;94702.33;;;5.08;84.85
72118;BME280;59992;47.490;8.736;2024-02-26T00:44:13;94706.22;;;5.07;85.76
72118;BME280;59992;47.490;8.736;2024-02-26T00:47:03;94709.14;;;5.07;86.35
72118;BME280;59992;47.490;8.736;2024-02-26T00:49:53;94709.76;;;5.09;87.07
72118;BME280;59992;47.490;8.736;2024-02-26T00:52:43;94712.15;;;5.09;86.99
72118;BME280;59992;47.490;8.736;2024-02-26T00:55:33;94714.86;;;5.09;86.99
72118;BME280;59992;47.490;8.736;2024-02-26T00:58:23;94718.69;;;5.10;87.10
72118;BME280;59992;47.490;8.736;2024-02-26T01:01:14;94714.20;;;5.12;86.60
72118;BME280;59992;47.490;8.736;2024-02-26T01:04:05;94710.23;;;5.12;85.73
72118;BME280;59992;47.490;8.736;2024-02-26T01:06:55;94715.98;;;5.09;86.13
72118;BME280;59992;47.490;8.736;2024-02-26T01:09:45;94716.81;;;5.10;86.76
72118;BME280;59992;47.490;8.736;2024-02-26T01:12:35;94725.81;;;5.10;87.15
72118;BME280;59992;47.490;8.736;2024-02-26T01:15:26;94727.47;;;5.10;87.13
72118;BME280;59992;47.490;8.736;2024-02-26T01:18:16;94731.05;;;5.05;86.68
72118;BME280;59992;47.490;8.736;2024-02-26T01:21:06;94728.79;;;5.03;86.65
72118;BME280;59992;47.490;8.736;2024-02-26T01:23:58;94727.43;;;5.03;87.18
72118;BME280;59992;47.490;8.736;2024-02-26T01:26:48;94727.58;;;5.03;86.43
72118;BME280;59992;47.490;8.736;2024-02-26T01:29:38;94730.45;;;5.00;85.49
72118;BME280;59992;47.490;8.736;2024-02-26T01:32:28;94719.28;;;4.91;85.56
72118;BME280;59992;47.490;8.736;2024-02-26T01:35:18;94731.11;;;5.01;86.35
72118;BME280;59992;47.490;8.736;2024-02-26T01:38:08;94729.06;;;4.98;87.31
72118;BME280;59992;47.490;8.736;2024-02-26T01:40:59;94732.21;;;4.98;86.49
72118;BME280;59992;47.490;8.736;2024-02-26T01:43:49;94729.05;;;4.96;86.83
72118;BME280;59992;47.490;8.736;2024-02-26T01:46:39;94729.42;;;4.95;86.59
72118;BME280;59992;47.490;8.736;2024-02-26T01:49:31;94727.33;;;4.95;86.35
72118;BME280;59992;47.490;8.736;2024-02-26T01:52:22;94729.63;;;4.90;86.55
72118;BME280;59992;47.490;8.736;2024-02-26T01:55:12;94726.24;;;4.89;86.81
72118;BME280;59992;47.490;8.736;2024-02-26T01:58:04;94727.21;;;4.88;85.75
72118;BME280;59992;47.490;8.736;2024-02-26T02:00:55;94729.16;;;4.87;86.40
72118;BME280;59992;47.490;8.736;2024-02-26T02:03:46;94728.78;;;4.86;86.55
72118;BME280;59992;47.490;8.736;2024-02-26T02:06:37;94729.92;;;4.88;86.95
72118;BME280;59992;47.490;8.736;2024-02-26T02:09:28;94732.39;;;4.90;86.49
72118;BME280;59992;47.490;8.736;2024-02-26T02:12:19;94729.84;;;4.90;87.80
72118;BME280;59992;47.490;8.736;2024-02-26T02:15:09;94732.12;;;4.93;86.53
72118;BME280;59992;47.490;8.736;2024-02-26T02:18:00;94728.51;;;4.90;84.57
72118;BME280;59992;47.490;8.736;2024-02-26T02:20:50;94728.72;;;4.88;85.80
72118;BME280;59992;47.490;8.736;2024-02-26T02:23:40;94724.80;;;4.87;86.78
72118;BME280;59992;47.490;8.736;2024-02-26T02:26:35;94719.71;;;4.88;86.94
72118;BME280;59992;47.490;8.736;2024-02-26T02:29:25;94717.17;;;4.91;87.04
72118;BME280;59992;47.490;8.736;2024-02-26T02:32:17;94714.94;;;4.93;85.95
72118;BME280;59992;47.490;8.736;2024-02-26T02:35:09;94710.35;;;4.93;84.79
72118;BME280;59992;47.490;8.736;2024-02-26T02:38:00;94711.64;;;4.93;84.72
72118;BME280;59992;47.490;8.736;2024-02-26T02:40:50;94713.59;;;4.94;84.78
72118;BME280;59992;47.490;8.736;2024-02-26T02:43:40;94710.45;;;4.94;84.95
72118;BME280;59992;47.490;8.736;2024-02-26T02:46:30;94709.61;;;4.93;85.33
72118;BME280;59992;47.490;8.736;2024-02-26T02:49:22;94702.77;;;4.87;86.12
72118;BME280;59992;47.490;8.736;2024-02-26T02:52:13;94710.59;;;4.94;86.25
72118;BME280;59992;47.490;8.736;2024-02-26T02:55:03;94706.19;;;4.96;85.41
72118;BME280;59992;47.490;8.736;2024-02-26T02:57:53;94690.20;;;4.97;85.49
72118;BME280;59992;47.490;8.736;2024-02-26T03:00:44;94694.34;;;4.97;84.90
72118;BME280;59992;47.490;8.736;2024-02-26T03:03:34;94694.94;;;4.97;85.98
72118;BME280;59992;47.490;8.736;2024-02-26T03:06:25;94684.90;;;4.99;86.09
72118;BME280;59992;47.490;8.736;2024-02-26T03:09:17;94689.10;;;5.01;86.05
72118;BME280;59992;47.490;8.736;2024-02-26T03:12:08;94683.47;;;5.03;85.80
72118;BME280;59992;47.490;8.736;2024-02-26T03:14:58;94686.02;;;5.03;85.54
72118;BME280;59992;47.490;8.736;2024-02-26T03:17:51;94676.72;;;5.03;85.39
72118;BME280;59992;47.490;8.736;2024-02-26T03:20:43;94663.68;;;5.04;84.76
72118;BME280;59992;47.490;8.736;2024-02-26T03:23:33;94659.91;;;5.03;86.19
72118;BME280;59992;47.490;8.736;2024-02-26T03:26:25;94650.39;;;5.03;85.47
72118;BME280;59992;47.490;8.736;2024-02-26T03:29:15;94647.98;;;5.02;85.23
72118;BME280;59992;47.490;8.736;2024-02-26T03:32:07;94646.34;;;5.02;84.55
72118;BME280;59992;47.490;8.736;2024-02-26T03:34:57;94653.40;;;5.03;86.00
72118;BME280;59992;47.490;8.736;2024-02-26T03:37:50;94653.77;;;5.01;85.92
72118;BME280;59992;47.490;8.736;2024-02-26T03:40:40;94648.14;;;5.00;85.30
72118;BME280;59992;47.490;8.736;2024-02-26T03:43:30;94641.90;;;4.96;85.47
72118;BME280;59992;47.490;8.736;2024-02-26T03:46:22;94640.39;;;4.93;85.78
72118;BME280;59992;47.490;8.736;2024-02-26T03:49:13;94649.81;;;4.90;86.83
72118;BME280;59992;47.490;8.736;2024-02-26T03:52:03;94658.52;;;4.86;86.53
72118;BME280;59992;47.490;8.736;2024-02-26T03:54:53;94664.27;;;4.85;86.62
72118;BME280;59992;47.490;8.736;2024-02-26T03:57:44;94665.18;;;4.85;86.57
72118;BME280;59992;47.490;8.736;2024-02-26T04:00:34;94658.96;;;4.86;85.60
72118;BME280;59992;47.490;8.736;2024-02-26T04:03:24;94660.85;;;4.90;85.48
72118;BME280;59992;47.490;8.736;2024-02-26T04:06:14;94665.37;;;4.93;84.71
72118;BME280;59992;47.490;8.736;2024-02-26T04:09:07;94673.55;;;4.95;86.17
72118;BME280;59992;47.490;8.736;2024-02-26T04:11:59;94673.67;;;4.89;86.91
72118;BME280;59992;47.490;8.736;2024-02-26T04:14:49;94690.56;;;4.95;86.60
72118;BME280;59992;47.490;8.736;2024-02-26T04:17:39;94696.57;;;4.95;85.90
72118;BME280;59992;47.490;8.736;2024-02-26T04:20:30;94713.23;;;4.96;85.45
72118;BME280;59992;47.490;8.736;2024-02-26T04:23:20;94722.39;;;4.97;85.06
72118;BME280;59992;47.490;8.736;2024-02-26T04:26:11;94729.52;;;4.98;85.84
72118;BME280;59992;47.490;8.736;2024-02-26T04:29:01;94736.36;;;5.01;85.72
72118;BME280;59992;47.490;8.736;2024-02-26T04:31:51;94739.80;;;5.02;85.40
72118;BME280;59992;47.490;8.736;2024-02-26T04:34:42;94740.93;;;5.03;86.26
72118;BME280;59992;47.490;8.736;2024-02-26T04:37:32;94742.67;;;5.04;85.32
72118;BME280;59992;47.490;8.736;2024-02-26T04:40:22;94742.58;;;5.02;84.93
72118;BME280;59992;47.490;8.736;2024-02-26T04:43:12;94747.84;;;5.02;84.93
72118;BME280;59992;47.490;8.736;2024-02-26T04:46:03;94753.81;;;4.96;85.94
72118;BME280;59992;47.490;8.736;2024-02-26T04:48:53;94760.42;;;4.98;86.68
72118;BME280;59992;47.490;8.736;2024-02-26T04:51:44;94759.68;;;5.00;86.05
72118;BME280;59992;47.490;8.736;2024-02-26T04:54:39;94765.45;;;5.01;85.14
72118;BME280;59992;47.490;8.736;2024-02-26T04:57:29;94759.46;;;5.00;84.94
72118;BME280;59992;47.490;8.736;2024-02-26T05:00:20;94758.54;;;4.97;86.30
72118;BME280;59992;47.490;8.736;2024-02-26T05:03:10;94751.56;;;4.99;85.81
72118;BME280;59992;47.490;8.736;2024-02-26T05:06:02;94751.34;;;4.96;86.10
72118;BME280;59992;47.490;8.736;2024-02-26T05:08:54;94752.54;;;4.95;86.01
72118;BME280;59992;47.490;8.736;2024-02-26T05:11:44;94749.63;;;4.85;86.78
72118;BME280;59992;47.490;8.736;2024-02-26T05:14:34;94764.72;;;4.88;87.37
72118;BME280;59992;47.490;8.736;2024-02-26T05:17:25;94761.27;;;4.90;87.11
72118;BME280;59992;47.490;8.736;2024-02-26T05:20:15;94757.38;;;4.91;86.40
72118;BME280;59992;47.490;8.736;2024-02-26T05:23:05;94753.77;;;4.88;87.68
72118;BME280;59992;47.490;8.736;2024-02-26T05:25:55;94751.15;;;4.88;87.43
72118;BME280;59992;47.490;8.736;2024-02-26T05:28:46;94761.33;;;4.86;86.87
72118;BME280;59992;47.490;8.736;2024-02-26T05:31:39;94765.09;;;4.86;88.20
72118;BME280;59992;47.490;8.736;2024-02-26T05:34:31;94758.34;;;4.86;88.34
72118;BME280;59992;47.490;8.736;2024-02-26T05:37:22;94761.04;;;4.88;87.33
72118;BME280;59992;47.490;8.736;2024-02-26T05:40:13;94768.91;;;4.86;87.98
72118;BME280;59992;47.490;8.736;2024-02-26T05:43:04;94766.90;;;4.88;87.74
72118;BME280;59992;47.490;8.736;2024-02-26T05:45:54;94759.98;;;4.88;87.09
72118;BME280;59992;47.490;8.736;2024-02-26T05:48:45;94755.87;;;4.89;87.22
72118;BME280;59992;47.490;8.736;2024-02-26T05:51:35;94754.75;;;4.89;88.53
72118;BME280;59992;47.490;8.736;2024-02-26T05:54:29;94753.61;;;4.90;89.45
72118;BME280;59992;47.490;8.736;2024-02-26T05:57:19;94762.56;;;4.91;89.57
72118;BME280;59992;47.490;8.736;2024-02-26T06:00:11;94766.02;;;4.91;88.61
72118;BME280;59992;47.490;8.736;2024-02-26T06:03:01;94766.31;;;4.91;89.44
72118;BME280;59992;47.490;8.736;2024-02-26T06:05:52;94765.05;;;4.93;88.72
72118;BME280;59992;47.490;8.736;2024-02-26T06:08:42;94776.44;;;4.91;88.55
72118;BME280;59992;47.490;8.736;2024-02-26T06:11:32;94779.36;;;4.91;88.90
72118;BME280;59992;47.490;8.736;2024-02-26T06:14:23;94778.55;;;4.93;88.26
72118;BME280;59992;47.490;8.736;2024-02-26T06:17:14;94780.86;;;4.92;87.36
72118;BME280;59992;47.490;8.736;2024-02-26T06:20:04;94780.19;;;4.92;87.01
72118;BME280;59992;47.490;8.736;2024-02-26T06:22:55;94780.26;;;4.90;87.74
72118;BME280;59992;47.490;8.736;2024-02-26T06:25:45;94777.48;;;4.90;88.10
72118;BME280;59992;47.490;8.736;2024-02-26T06:28:36;94777.63;;;4.90;88.80
72118;BME280;59992;47.490;8.736;2024-02-26T06:31:29;94773.66;;;4.92;88.93
72118;BME280;59992;47.490;8.736;2024-02-26T06:34:20;94772.70;;;4.94;88.30
72118;BME280;59992;47.490;8.736;2024-02-26T06:37:10;94765.65;;;4.95;89.25
72118;BME280;59992;47.490;8.736;2024-02-26T06:40:01;94756.98;;;5.00;88.34
72118;BME280;59992;47.490;8.736;2024-02-26T06:42:53;94759.10;;;5.06;87.64
72118;BME280;59992;47.490;8.736;2024-02-26T06:45:43;94761.00;;;5.10;87.77
72118;BME280;59992;47.490;8.736;2024-02-26T06:48:33;94763.21;;;5.17;87.48
72118;BME280;59992;47.490;8.736;2024-02-26T06:51:25;94766.25;;;5.25;87.44
72118;BME280;59992;47.490;8.736;2024-02-26T06:54:15;94772.30;;;5.36;87.43
72118;BME280;59992;47.490;8.736;2024-02-26T06:57:06;94770.73;;;5.62;87.20
72118;BME280;59992;47.490;8.736;2024-02-26T06:59:56;94770.73;;;5.88;86.42
72118;BME280;59992;47.490;8.736;2024-02-26T07:02:48;94773.84;;;6.02;84.55
72118;BME280;59992;47.490;8.736;2024-02-26T07:05:38;94779.88;;;6.12;84.24
72118;BME280;59992;47.490;8.736;2024-02-26T07:08:29;94780.77;;;6.21;84.38
72118;BME280;59992;47.490;8.736;2024-02-26T07:11:19;94771.60;;;6.29;84.56
72118;BME280;59992;47.490;8.736;2024-02-26T07:14:09;94773.19;;;6.37;83.74
72118;BME280;59992;47.490;8.736;2024-02-26T07:17:00;94783.48;;;6.43;82.76
72118;BME280;59992;47.490;8.736;2024-02-26T07:19:50;94793.86;;;6.44;82.54
72118;BME280;59992;47.490;8.736;2024-02-26T07:22:40;94798.38;;;6.43;82.33
72118;BME280;59992;47.490;8.736;2024-02-26T07:25:34;94803.94;;;6.47;82.71
72118;BME280;59992;47.490;8.736;2024-02-26T07:28:25;94796.80;;;6.49;82.37
72118;BME280;59992;47.490;8.736;2024-02-26T07:31:15;94793.71;;;6.55;83.32
72118;BME280;59992;47.490;8.736;2024-02-26T07:34:05;94796.19;;;6.62;82.69
72118;BME280;59992;47.490;8.736;2024-02-26T07:36:55;94804.24;;;6.64;80.70
72118;BME280;59992;47.490;8.736;2024-02-26T07:39:45;94806.27;;;6.70;81.64
72118;BME280;59992;47.490;8.736;2024-02-26T07:42:35;94805.96;;;6.79;81.64
72118;BME280;59992;47.490;8.736;2024-02-26T07:45:25;94805.04;;;6.91;81.52
72118;BME280;59992;47.490;8.736;2024-02-26T07:48:15;94799.47;;;7.24;84.24
72118;BME280;59992;47.490;8.736;2024-02-26T07:51:06;94792.61;;;7.49;84.16
72118;BME280;59992;47.490;8.736;2024-02-26T07:53:56;94800.58;;;7.72;83.06
72118;BME280;59992;47.490;8.736;2024-02-26T07:56:46;94797.65;;;7.85;77.44
72118;BME280;59992;47.490;8.736;2024-02-26T07:59:36;94784.99;;;7.97;79.27
72118;BME280;59992;47.490;8.736;2024-02-26T08:02:26;94790.96;;;8.17;80.34
72118;BME280;59992;47.490;8.736;2024-02-26T08:05:16;94791.48;;;8.36;79.00
72118;BME280;59992;47.490;8.736;2024-02-26T08:08:08;94786.55;;;8.58;73.12
72118;BME280;59992;47.490;8.736;2024-02-26T08:10:58;94793.52;;;9.12;72.20
72118;BME280;59992;47.490;8.736;2024-02-26T08:13:48;94788.29;;;9.56;71.66
72118;BME280;59992;47.490;8.736;2024-02-26T08:16:38;94786.30;;;9.94;72.26
72118;BME280;59992;47.490;8.736;2024-02-26T08:19:29;94793.36;;;10.31;68.20
72118;BME280;59992;47.490;8.736;2024-02-26T08:22:19;94799.63;;;10.63;64.31
72118;BME280;59992;47.490;8.736;2024-02-26T08:25:11;94800.67;;;10.95;64.25
72118;BME280;59992;47.490;8.736;2024-02-26T08:28:00;94788.10;;;11.25;60.77
72118;BME280;59992;47.490;8.736;2024-02-26T08:30:50;94790.58;;;11.63;65.92
72118;BME280;59992;47.490;8.736;2024-02-26T08:33:41;94791.86;;;12.05;65.60
72118;BME280;59992;47.490;8.736;2024-02-26T08:36:33;94793.44;;;12.32;60.10
72118;BME280;59992;47.490;8.736;2024-02-26T08:39:23;94795.95;;;12.49;58.27
72118;BME280;59992;47.490;8.736;2024-02-26T08:42:15;94806.27;;;12.69;64.35
72118;BME280;59992;47.490;8.736;2024-02-26T08:45:07;94801.30;;;12.80;58.14
72118;BME280;59992;47.490;8.736;2024-02-26T08:47:57;94798.42;;;12.74;55.81
72118;BME280;59992;47.490;8.736;2024-02-26T08:50:48;94795.46;;;12.76;55.26
72118;BME280;59992;47.490;8.736;2024-02-26T08:53:38;94796.60;;;12.76;55.78
72118;BME280;59992;47.490;8.736;2024-02-26T08:56:28;94798.92;;;12.91;55.81
72118;BME280;59992;47.490;8.736;2024-02-26T08:59:19;94814.02;;;12.82;55.38
72118;BME280;59992;47.490;8.736;2024-02-26T09:02:11;94822.61;;;12.88;56.49
72118;BME280;59992;47.490;8.736;2024-02-26T09:05:01;94828.75;;;12.69;54.70
72118;BME280;59992;47.490;8.736;2024-02-26T09:07:52;94831.15;;;12.57;55.49
72118;BME280;59992;47.490;8.736;2024-02-26T09:10:42;94826.58;;;12.58;60.24
72118;BME280;59992;47.490;8.736;2024-02-26T09:13:33;94830.39;;;12.64;69.27
72118;BME280;59992;47.490;8.736;2024-02-26T09:16:23;94822.40;;;12.61;60.31
72118;BME280;59992;47.490;8.736;2024-02-26T09:19:13;94818.75;;;12.61;59.96
72118;BME280;59992;47.490;8.736;2024-02-26T09:22:04;94814.59;;;12.57;62.81
72118;BME280;59992;47.490;8.736;2024-02-26T09:24:54;94809.45;;;12.44;55.87
72118;BME280;59992;47.490;8.736;2024-02-26T09:27:45;94818.61;;;12.17;55.18
72118;BME280;59992;47.490;8.736;2024-02-26T09:30:38;94818.83;;;12.06;56.93
72118;BME280;59992;47.490;8.736;2024-02-26T09:33:28;94812.91;;;11.96;56.64
72118;BME280;59992;47.490;8.736;2024-02-26T09:36:18;94808.67;;;12.02;62.53
72118;BME280;59992;47.490;8.736;2024-02-26T09:39:08;94804.87;;;12.03;58.60
72118;BME280;59992;47.490;8.736;2024-02-26T09:42:01;94810.42;;;12.09;65.45
72118;BME280;59992;47.490;8.736;2024-02-26T09:44:56;94804.23;;;12.08;62.45
72118;BME280;59992;47.490;8.736;2024-02-26T09:47:50;94796.44;;;12.03;62.24
72118;BME280;59992;47.490;8.736;2024-02-26T09:50:42;94795.93;;;11.92;60.30
72118;BME280;59992;47.490;8.736;2024-02-26T09:53:33;94795.98;;;11.82;61.98
72118;BME280;59992;47.490;8.736;2024-02-26T09:56:28;94795.84;;;11.73;60.46
72118;BME280;59992;47.490;8.736;2024-02-26T09:59:21;94807.55;;;11.79;65.98
72118;BME280;59992;47.490;8.736;2024-02-26T10:02:13;94809.23;;;11.86;64.11
72118;BME280;59992;47.490;8.736;2024-02-26T10:05:04;94808.98;;;11.83;58.29
72118;BME280;59992;47.490;8.736;2024-02-26T10:07:57;94810.74;;;11.79;59.15
72118;BME280;59992;47.490;8.736;2024-02-26T10:10:51;94812.81;;;11.86;67.47
72118;BME280;59992;47.490;8.736;2024-02-26T10:13:41;94816.30;;;11.85;61.20
72118;BME280;59992;47.490;8.736;2024-02-26T10:16:32;94824.98;;;11.88;67.63
72118;BME280;59992;47.490;8.736;2024-02-26T10:19:30;94828.69;;;11.92;66.37
72118;BME280;59992;47.490;8.736;2024-02-26T10:22:23;94829.48;;;11.82;57.98
72118;BME280;59992;47.490;8.736;2024-02-26T10:25:13;94827.05;;;11.87;64.00
72118;BME280;59992;47.490;8.736;2024-02-26T10:28:04;94827.00;;;11.82;59.53
72118;BME280;59992;47.490;8.736;2024-02-26T10:30:54;94828.45;;;11.77;64.55
72118;BME280;59992;47.490;8.736;2024-02-26T10:33:45;94824.05;;;11.70;64.03
72118;BME280;59992;47.490;8.736;2024-02-26T10:36:36;94824.16;;;11.63;59.59
72118;BME280;59992;47.490;8.736;2024-02-26T10:39:26;94836.71;;;11.60;60.70
72118;BME280;59992;47.490;8.736;2024-02-26T10:42:16;94838.80;;;11.55;58.07
72118;BME280;59992;47.490;8.736;2024-02-26T10:45:11;94836.73;;;11.50;59.77
72118;BME280;59992;47.490;8.736;2024-02-26T10:48:01;94841.63;;;11.41;56.80
72118;BME280;59992;47.490;8.736;2024-02-26T10:50:52;94846.73;;;11.35;60.48
72118;BME280;59992;47.490;8.736;2024-02-26T10:53:44;94850.66;;;11.32;64.45
72118;BME280;59992;47.490;8.736;2024-02-26T10:56:36;94847.20;;;11.26;62.27
72118;BME280;59992;47.490;8.736;2024-02-26T10:59:28;94852.88;;;11.18;58.59
72118;BME280;59992;47.490;8.736;2024-02-26T11:02:19;94860.83;;;11.13;59.29
72118;BME280;59992;47.490;8.736;2024-02-26T11:05:12;94863.77;;;11.09;58.75
72118;BME280;59992;47.490;8.736;2024-02-26T11:08:04;94861.98;;;11.12;60.77
72118;BME280;59992;47.490;8.736;2024-02-26T11:10:56;94864.67;;;11.19;61.07
72118;BME280;59992;47.490;8.736;2024-02-26T11:13:48;94866.29;;;11.26;61.60
72118;BME280;59992;47.490;8.736;2024-02-26T11:16:40;94863.39;;;11.32;68.08
72118;BME280;59992;47.490;8.736;2024-02-26T11:19:34;94862.04;;;11.32;60.19
72118;BME280;59992;47.490;8.736;2024-02-26T11:22:26;94857.75;;;11.38;66.18
72118;BME280;59992;47.490;8.736;2024-02-26T11:25:18;94852.98;;;11.37;62.30
72118;BME280;59992;47.490;8.736;2024-02-26T11:28:11;94849.33;;;11.43;64.92
72118;BME280;59992;47.490;8.736;2024-02-26T11:31:03;94838.22;;;11.36;64.20
72118;BME280;59992;47.490;8.736;2024-02-26T11:33:57;94843.33;;;11.51;62.26
72118;BME280;59992;47.490;8.736;2024-02-26T11:36:47;94850.53;;;11.59;62.37
72118;BME280;59992;47.490;8.736;2024-02-26T11:39:38;94853.84;;;11.65;60.50
72118;BME280;59992;47.490;8.736;2024-02-26T11:42:29;94845.83;;;11.60;58.42
72118;BME280;59992;47.490;8.736;2024-02-26T11:45:50;94847.62;;;11.66;66.03
72118;BME280;59992;47.490;8.736;2024-02-26T11:48:42;94848.71;;;11.72;60.25
72118;BME280;59992;47.490;8.736;2024-02-26T11:51:36;94855.20;;;11.78;61.66
72118;BME280;59992;47.490;8.736;2024-02-26T11:54:45;94854.50;;;11.84;65.93
72118;BME280;59992;47.490;8.736;2024-02-26T11:57:41;94858.41;;;11.85;61.85
72118;BME280;59992;47.490;8.736;2024-02-26T12:00:30;94861.08;;;11.88;64.74
72118;BME280;59992;47.490;8.736;2024-02-26T12:03:23;94860.41;;;11.92;64.12
72118;BME280;59992;47.490;8.736;2024-02-26T12:06:15;94862.30;;;11.96;60.65
72118;BME280;59992;47.490;8.736;2024-02-26T12:09:06;94862.39;;;12.03;67.87
72118;BME280;59992;47.490;8.736;2024-02-26T12:11:57;94861.34;;;12.06;66.15
72118;BME280;59992;47.490;8.736;2024-02-26T12:14:53;94857.45;;;12.03;56.10
72118;BME280;59992;47.490;8.736;2024-02-26T12:17:49;94857.96;;;12.12;66.40
72118;BME280;59992;47.490;8.736;2024-02-26T12:20:40;94858.48;;;12.19;65.89
72118;BME280;59992;47.490;8.736;2024-02-26T12:23:32;94860.00;;;12.26;65.98
72118;BME280;59992;47.490;8.736;2024-02-26T12:26:23;94857.57;;;12.30;61.61
72118;BME280;59992;47.490;8.736;2024-02-26T12:29:13;94854.14;;;12.34;61.28
72118;BME280;59992;47.490;8.736;2024-02-26T12:32:04;94852.61;;;12.41;63.14
72118;BME280;59992;47.490;8.736;2024-02-26T12:34:55;94845.88;;;12.44;60.21
72118;BME280;59992;47.490;8.736;2024-02-26T12:37:47;94845.08;;;12.45;58.56
72118;BME280;59992;47.490;8.736;2024-02-26T12:40:38;94850.83;;;12.47;60.81
72118;BME280;59992;47.490;8.736;2024-02-26T12:43:28;94851.20;;;12.47;60.17
72118;BME280;59992;47.490;8.736;2024-02-26T12:46:19;94851.65;;;12.51;62.23
72118;BME280;59992;47.490;8.736;2024-02-26T12:49:10;94849.02;;;12.56;65.32
72118;BME280;59992;47.490;8.736;2024-02-26T12:52:05;94849.71;;;12.62;62.69
72118;BME280;59992;47.490;8.736;2024-02-26T12:54:56;94847.02;;;12.68;58.64
72118;BME280;59992;47.490;8.736;2024-02-26T12:57:46;94848.35;;;12.73;56.09
72118;BME280;59992;47.490;8.736;2024-02-26T13:00:39;94844.02;;;12.79;63.55
72118;BME280;59992;47.490;8.736;2024-02-26T13:03:30;94839.90;;;12.80;60.71
72118;BME280;59992;47.490;8.736;2024-02-26T13:06:21;94838.23;;;12.73;55.84
72118;BME280;59992;47.490;8.736;2024-02-26T13:09:13;94832.30;;;12.74;56.72
72118;BME280;59992;47.490;8.736;2024-02-26T13:12:07;94826.60;;;12.70;58.04
72118;BME280;59992;47.490;8.736;2024-02-26T13:15:05;94821.39;;;12.72;59.64
72118;BME280;59992;47.490;8.736;2024-02-26T13:17:55;94825.11;;;12.75;58.76
72118;BME280;59992;47.490;8.736;2024-02-26T13:20:46;94826.65;;;12.77;60.18
72118;BME280;59992;47.490;8.736;2024-02-26T13:23:36;94832.63;;;12.76;59.75
72118;BME280;59992;47.490;8.736;2024-02-26T13:26:26;94839.90;;;12.66;55.44
72118;BME280;59992;47.490;8.736;2024-02-26T13:29:20;94840.77;;;12.61;55.19
72118;BME280;59992;47.490;8.736;2024-02-26T13:32:11;94834.66;;;12.56;62.31
72118;BME280;59992;47.490;8.736;2024-02-26T13:35:09;94826.69;;;12.50;57.07
72118;BME280;59992;47.490;8.736;2024-02-26T13:38:00;94826.40;;;12.52;59.38
72118;BME280;59992;47.490;8.736;2024-02-26T13:40:50;94824.59;;;12.52;56.91
72118;BME280;59992;47.490;8.736;2024-02-26T13:43:41;94824.67;;;12.55;57.25
72118;BME280;59992;47.490;8.736;2024-02-26T13:46:31;94826.58;;;12.54;57.45
72118;BME280;59992;47.490;8.736;2024-02-26T13:49:22;94822.98;;;12.53;56.60
72118;BME280;59992;47.490;8.736;2024-02-26T13:52:12;94827.20;;;12.57;61.47
72118;BME280;59992;47.490;8.736;2024-02-26T13:55:03;94820.05;;;12.48;53.70
72118;BME280;59992;47.490;8.736;2024-02-26T13:57:53;94822.88;;;12.44;54.29
72118;BME280;59992;47.490;8.736;2024-02-26T14:00:44;94825.81;;;12.35;52.96
72118;BME280;59992;47.490;8.736;2024-02-26T14:03:34;94825.16;;;12.30;55.81
72118;BME280;59992;47.490;8.736;2024-02-26T14:06:25;94820.95;;;12.17;53.71
72118;BME280;59992;47.490;8.736;2024-02-26T14:09:15;94823.48;;;12.09;54.15
72118;BME280;59992;47.490;8.736;2024-02-26T14:12:12;94820.67;;;12.06;58.87
72118;BME280;59992;47.490;8.736;2024-02-26T14:15:03;94819.30;;;12.02;61.76
72118;BME280;59992;47.490;8.736;2024-02-26T14:17:54;94819.94;;;11.97;59.78
72118;BME280;59992;47.490;8.736;2024-02-26T14:20:44;94820.13;;;11.91;56.06
72118;BME280;59992;47.490;8.736;2024-02-26T14:23:35;94811.85;;;11.84;60.97
72118;BME280;59992;47.490;8.736;2024-02-26T14:26:28;94817.69;;;11.85;61.80
72118;BME280;59992;47.490;8.736;2024-02-26T14:29:18;94814.79;;;11.74;58.01
72118;BME280;59992;47.490;8.736;2024-02-26T14:32:08;94825.51;;;11.76;60.98
72118;BME280;59992;47.490;8.736;2024-02-26T14:34:58;94837.56;;;11.72;60.06
72118;BME280;59992;47.490;8.736;2024-02-26T14:37:48;94842.21;;;11.68;61.00
72118;BME280;59992;47.490;8.736;2024-02-26T14:40:42;94847.41;;;11.65;61.18
72118;BME280;59992;47.490;8.736;2024-02-26T14:43:32;94850.04;;;11.58;58.95
72118;BME280;59992;47.490;8.736;2024-02-26T14:46:23;94853.60;;;11.54;60.49
72118;BME280;59992;47.490;8.736;2024-02-26T14:49:14;94865.17;;;11.42;57.01
72118;BME280;59992;47.490;8.736;2024-02-26T14:52:05;94871.52;;;11.44;60.22
72118;BME280;59992;47.490;8.736;2024-02-26T14:54:56;94876.94;;;11.41;59.60
72118;BME280;59992;47.490;8.736;2024-02-26T14:57:46;94883.36;;;11.38;58.28
72118;BME280;59992;47.490;8.736;2024-02-26T15:00:36;94884.60;;;11.36;60.36
72118;BME280;59992;47.490;8.736;2024-02-26T15:03:26;94886.87;;;11.32;58.48
72118;BME280;59992;47.490;8.736;2024-02-26T15:06:17;94896.77;;;11.29;60.82
72118;BME280;59992;47.490;8.736;2024-02-26T15:09:07;94903.09;;;11.24;59.52
72118;BME280;59992;47.490;8.736;2024-02-26T15:11:58;94903.71;;;11.17;58.73